CheckWX is a tool to help pilots better visualize weather data.  It is not intended as a substitute for an official pre-flight weather briefing.

21:05:08 UTC

KSNK METAR
Winston Field Airport
Snyder, Texas, USA
Current

10 mins ago

KSNK 232055Z AUTO 15018G23KT 10SM SCT041 BKN049 29/20 A2987 RMK AO2 T02890202
Observed
May-23 @ 20:55 UTC
Wind
  • 150° at 18 KTS
  • Gusting to 23 KTS
Visibility
10 SM
Flight Rules
VFR
Cloud Levels
  • Scattered at 4,100' AGL
  • Broken at 4,900' AGL
Temperature
29°C / 84°F
Dewpoint
20°C / 68°F
Heat Index
31°C / 87°F
Humidity
58%
Altimeter
29.87" Hg
Pressure
1011.52 hPa
Previous

30 mins ago

KSNK 232035Z AUTO 16016G21KT 10SM SCT040 OVC049 28/20 A2988 RMK AO2 T02800200
Observed
May-23 @ 20:35 UTC
Wind
  • 160° at 16 KTS
  • Gusting to 21 KTS
Visibility
10 SM
Flight Rules
VFR
Cloud Levels
  • Scattered at 4,000' AGL
  • Overcast at 4,900' AGL
Temperature
28°C / 82°F
Dewpoint
20°C / 68°F
Heat Index
29°C / 85°F
Humidity
62%
Altimeter
29.88" Hg
Pressure
1011.82 hPa
Previous

2 hours ago

KSNK 231915Z AUTO 16014G21KT 7SM OVC039 27/20 A2989 RMK AO2 T02680196
Observed
May-23 @ 19:15 UTC
Wind
  • 160° at 14 KTS
  • Gusting to 21 KTS
Visibility
7 SM
Flight Rules
VFR
Cloud Levels
  • Overcast at 3,900' AGL
Temperature
27°C / 81°F
Dewpoint
20°C / 68°F
Heat Index
29°C / 84°F
Humidity
66%
Altimeter
29.89" Hg
Pressure
1012.22 hPa